sensor_id;sensor_type;location;lat;lon;timestamp;P1;durP1;ratioP1;P2;durP2;ratioP2
43670;SDS011;29267;50.906;7.248;2022-10-16T00:01:47;5.47;;;3.33;;
43670;SDS011;29267;50.906;7.248;2022-10-16T00:04:12;6.30;;;3.47;;
43670;SDS011;29267;50.906;7.248;2022-10-16T00:06:38;6.03;;;3.55;;
43670;SDS011;29267;50.906;7.248;2022-10-16T00:09:04;6.40;;;4.20;;
43670;SDS011;29267;50.906;7.248;2022-10-16T00:11:31;8.63;;;2.92;;
43670;SDS011;29267;50.906;7.248;2022-10-16T00:13:59;4.60;;;3.28;;
43670;SDS011;29267;50.906;7.248;2022-10-16T00:16:25;6.95;;;3.88;;
43670;SDS011;29267;50.906;7.248;2022-10-16T00:18:52;6.60;;;3.05;;
43670;SDS011;29267;50.906;7.248;2022-10-16T00:21:19;5.30;;;2.67;;
43670;SDS011;29267;50.906;7.248;2022-10-16T00:23:46;6.40;;;2.70;;
43670;SDS011;29267;50.906;7.248;2022-10-16T00:26:15;6.65;;;2.42;;
43670;SDS011;29267;50.906;7.248;2022-10-16T00:28:42;5.90;;;2.55;;
43670;SDS011;29267;50.906;7.248;2022-10-16T00:31:10;3.70;;;2.35;;
43670;SDS011;29267;50.906;7.248;2022-10-16T00:33:37;4.88;;;2.22;;
43670;SDS011;29267;50.906;7.248;2022-10-16T00:36:05;2.92;;;2.40;;
43670;SDS011;29267;50.906;7.248;2022-10-16T00:38:32;3.00;;;2.33;;
43670;SDS011;29267;50.906;7.248;2022-10-16T00:40:57;3.50;;;2.30;;
43670;SDS011;29267;50.906;7.248;2022-10-16T00:43:34;3.20;;;2.17;;
43670;SDS011;29267;50.906;7.248;2022-10-16T00:46:01;3.75;;;2.22;;
43670;SDS011;29267;50.906;7.248;2022-10-16T00:48:28;5.95;;;2.53;;
43670;SDS011;29267;50.906;7.248;2022-10-16T00:50:54;4.72;;;2.45;;
43670;SDS011;29267;50.906;7.248;2022-10-16T00:53:22;6.43;;;2.22;;
43670;SDS011;29267;50.906;7.248;2022-10-16T00:55:49;7.22;;;2.30;;
43670;SDS011;29267;50.906;7.248;2022-10-16T00:58:15;6.05;;;2.28;;
43670;SDS011;29267;50.906;7.248;2022-10-16T01:00:41;3.70;;;2.45;;
43670;SDS011;29267;50.906;7.248;2022-10-16T01:03:22;8.77;;;2.45;;
43670;SDS011;29267;50.906;7.248;2022-10-16T01:06:02;3.97;;;3.30;;
43670;SDS011;29267;50.906;7.248;2022-10-16T01:11:21;3.05;;;2.47;;
43670;SDS011;29267;50.906;7.248;2022-10-16T01:13:56;9.25;;;2.40;;
43670;SDS011;29267;50.906;7.248;2022-10-16T01:16:41;5.25;;;2.80;;
43670;SDS011;29267;50.906;7.248;2022-10-16T01:19:16;5.53;;;2.42;;
43670;SDS011;29267;50.906;7.248;2022-10-16T01:21:51;2.80;;;2.30;;
43670;SDS011;29267;50.906;7.248;2022-10-16T01:35:02;4.75;;;1.95;;
43670;SDS011;29267;50.906;7.248;2022-10-16T01:40:20;2.40;;;2.17;;
43670;SDS011;29267;50.906;7.248;2022-10-16T01:42:53;6.00;;;2.30;;
43670;SDS011;29267;50.906;7.248;2022-10-16T01:45:28;2.90;;;1.92;;
43670;SDS011;29267;50.906;7.248;2022-10-16T01:47:56;7.20;;;3.75;;
43670;SDS011;29267;50.906;7.248;2022-10-16T01:50:24;6.68;;;2.00;;
43670;SDS011;29267;50.906;7.248;2022-10-16T01:52:51;2.75;;;2.03;;
43670;SDS011;29267;50.906;7.248;2022-10-16T01:55:25;4.60;;;2.00;;
43670;SDS011;29267;50.906;7.248;2022-10-16T01:57:58;2.53;;;1.83;;
43670;SDS011;29267;50.906;7.248;2022-10-16T02:00:26;3.33;;;1.83;;
43670;SDS011;29267;50.906;7.248;2022-10-16T02:02:53;3.22;;;2.00;;
43670;SDS011;29267;50.906;7.248;2022-10-16T02:07:51;3.20;;;2.00;;
43670;SDS011;29267;50.906;7.248;2022-10-16T02:10:17;3.72;;;2.10;;
43670;SDS011;29267;50.906;7.248;2022-10-16T02:15:37;7.30;;;2.60;;
43670;SDS011;29267;50.906;7.248;2022-10-16T02:18:06;2.83;;;2.22;;
43670;SDS011;29267;50.906;7.248;2022-10-16T02:20:34;5.00;;;2.05;;
43670;SDS011;29267;50.906;7.248;2022-10-16T02:23:08;5.80;;;2.90;;
43670;SDS011;29267;50.906;7.248;2022-10-16T02:25:43;2.25;;;2.05;;
43670;SDS011;29267;50.906;7.248;2022-10-16T02:28:14;2.75;;;2.33;;
43670;SDS011;29267;50.906;7.248;2022-10-16T02:30:45;5.97;;;2.00;;
43670;SDS011;29267;50.906;7.248;2022-10-16T02:33:17;2.88;;;2.55;;
43670;SDS011;29267;50.906;7.248;2022-10-16T02:35:46;2.88;;;2.53;;
43670;SDS011;29267;50.906;7.248;2022-10-16T02:38:14;3.45;;;2.38;;
43670;SDS011;29267;50.906;7.248;2022-10-16T02:40:41;5.93;;;2.10;;
43670;SDS011;29267;50.906;7.248;2022-10-16T02:43:07;2.55;;;2.13;;
43670;SDS011;29267;50.906;7.248;2022-10-16T02:45:34;5.97;;;2.15;;
43670;SDS011;29267;50.906;7.248;2022-10-16T02:48:00;3.47;;;2.38;;
43670;SDS011;29267;50.906;7.248;2022-10-16T02:50:25;3.15;;;2.05;;
43670;SDS011;29267;50.906;7.248;2022-10-16T02:52:51;2.53;;;2.17;;
43670;SDS011;29267;50.906;7.248;2022-10-16T02:55:17;2.65;;;1.83;;
43670;SDS011;29267;50.906;7.248;2022-10-16T02:57:42;3.38;;;2.10;;
43670;SDS011;29267;50.906;7.248;2022-10-16T03:00:12;3.03;;;2.60;;
43670;SDS011;29267;50.906;7.248;2022-10-16T03:02:39;5.35;;;2.03;;
43670;SDS011;29267;50.906;7.248;2022-10-16T03:05:05;10.45;;;2.65;;
43670;SDS011;29267;50.906;7.248;2022-10-16T03:07:31;7.95;;;2.50;;
43670;SDS011;29267;50.906;7.248;2022-10-16T03:09:56;4.70;;;2.80;;
43670;SDS011;29267;50.906;7.248;2022-10-16T03:12:25;4.00;;;2.05;;
43670;SDS011;29267;50.906;7.248;2022-10-16T03:14:51;6.20;;;2.53;;
43670;SDS011;29267;50.906;7.248;2022-10-16T03:17:16;6.40;;;1.90;;
43670;SDS011;29267;50.906;7.248;2022-10-16T03:19:42;2.08;;;1.80;;
43670;SDS011;29267;50.906;7.248;2022-10-16T03:22:08;2.38;;;2.15;;
43670;SDS011;29267;50.906;7.248;2022-10-16T03:24:34;4.60;;;2.25;;
43670;SDS011;29267;50.906;7.248;2022-10-16T03:26:59;2.92;;;2.30;;
43670;SDS011;29267;50.906;7.248;2022-10-16T03:29:25;4.25;;;2.20;;
43670;SDS011;29267;50.906;7.248;2022-10-16T03:31:51;3.38;;;1.95;;
43670;SDS011;29267;50.906;7.248;2022-10-16T03:34:16;2.65;;;1.75;;
43670;SDS011;29267;50.906;7.248;2022-10-16T03:36:42;8.48;;;2.40;;
43670;SDS011;29267;50.906;7.248;2022-10-16T03:39:08;6.35;;;2.33;;
43670;SDS011;29267;50.906;7.248;2022-10-16T03:41:33;2.90;;;2.10;;
43670;SDS011;29267;50.906;7.248;2022-10-16T03:43:59;2.10;;;1.80;;
43670;SDS011;29267;50.906;7.248;2022-10-16T03:46:24;3.13;;;2.20;;
43670;SDS011;29267;50.906;7.248;2022-10-16T03:48:50;2.60;;;2.00;;
43670;SDS011;29267;50.906;7.248;2022-10-16T03:51:16;2.05;;;1.65;;
43670;SDS011;29267;50.906;7.248;2022-10-16T03:53:41;3.92;;;1.83;;
43670;SDS011;29267;50.906;7.248;2022-10-16T03:56:07;4.55;;;1.73;;
43670;SDS011;29267;50.906;7.248;2022-10-16T03:58:32;3.97;;;1.77;;
43670;SDS011;29267;50.906;7.248;2022-10-16T04:00:58;5.95;;;1.60;;
43670;SDS011;29267;50.906;7.248;2022-10-16T04:03:23;1.67;;;1.58;;
43670;SDS011;29267;50.906;7.248;2022-10-16T04:05:49;2.78;;;1.20;;
43670;SDS011;29267;50.906;7.248;2022-10-16T04:08:15;2.40;;;1.60;;
43670;SDS011;29267;50.906;7.248;2022-10-16T04:10:44;7.72;;;1.45;;
43670;SDS011;29267;50.906;7.248;2022-10-16T04:13:10;4.65;;;1.77;;
43670;SDS011;29267;50.906;7.248;2022-10-16T04:15:36;2.65;;;1.80;;
43670;SDS011;29267;50.906;7.248;2022-10-16T04:18:01;2.25;;;1.80;;
43670;SDS011;29267;50.906;7.248;2022-10-16T04:20:27;3.33;;;1.65;;
43670;SDS011;29267;50.906;7.248;2022-10-16T04:22:52;6.35;;;1.55;;
43670;SDS011;29267;50.906;7.248;2022-10-16T04:25:18;9.95;;;1.88;;
43670;SDS011;29267;50.906;7.248;2022-10-16T04:27:43;3.53;;;1.30;;
43670;SDS011;29267;50.906;7.248;2022-10-16T04:30:09;1.83;;;1.25;;
43670;SDS011;29267;50.906;7.248;2022-10-16T04:32:35;2.63;;;1.17;;
43670;SDS011;29267;50.906;7.248;2022-10-16T04:35:01;2.20;;;1.13;;
43670;SDS011;29267;50.906;7.248;2022-10-16T04:37:27;1.40;;;1.10;;
43670;SDS011;29267;50.906;7.248;2022-10-16T04:39:53;1.85;;;1.40;;
43670;SDS011;29267;50.906;7.248;2022-10-16T04:42:19;4.15;;;1.33;;
43670;SDS011;29267;50.906;7.248;2022-10-16T04:44:45;1.75;;;1.30;;
43670;SDS011;29267;50.906;7.248;2022-10-16T04:47:11;1.33;;;1.23;;
43670;SDS011;29267;50.906;7.248;2022-10-16T04:49:37;2.92;;;0.93;;
43670;SDS011;29267;50.906;7.248;2022-10-16T04:52:03;1.27;;;1.08;;
43670;SDS011;29267;50.906;7.248;2022-10-16T04:54:29;1.35;;;1.15;;
43670;SDS011;29267;50.906;7.248;2022-10-16T04:56:55;1.88;;;1.02;;
43670;SDS011;29267;50.906;7.248;2022-10-16T04:59:20;10.10;;;1.73;;
43670;SDS011;29267;50.906;7.248;2022-10-16T05:01:47;1.65;;;1.10;;
43670;SDS011;29267;50.906;7.248;2022-10-16T05:04:12;2.38;;;1.40;;
43670;SDS011;29267;50.906;7.248;2022-10-16T05:06:39;1.38;;;1.20;;
43670;SDS011;29267;50.906;7.248;2022-10-16T05:09:05;1.15;;;1.02;;
43670;SDS011;29267;50.906;7.248;2022-10-16T05:11:32;1.50;;;1.23;;
43670;SDS011;29267;50.906;7.248;2022-10-16T05:13:58;2.85;;;1.35;;
43670;SDS011;29267;50.906;7.248;2022-10-16T05:16:23;1.95;;;1.75;;
43670;SDS011;29267;50.906;7.248;2022-10-16T05:18:50;3.95;;;1.55;;
43670;SDS011;29267;50.906;7.248;2022-10-16T05:21:17;3.05;;;1.50;;
43670;SDS011;29267;50.906;7.248;2022-10-16T05:23:42;1.75;;;1.38;;
43670;SDS011;29267;50.906;7.248;2022-10-16T05:26:08;8.40;;;1.38;;
43670;SDS011;29267;50.906;7.248;2022-10-16T05:28:33;1.70;;;1.50;;
43670;SDS011;29267;50.906;7.248;2022-10-16T05:30:59;1.60;;;1.40;;
43670;SDS011;29267;50.906;7.248;2022-10-16T05:33:32;4.65;;;1.65;;
43670;SDS011;29267;50.906;7.248;2022-10-16T05:36:05;3.38;;;1.55;;
43670;SDS011;29267;50.906;7.248;2022-10-16T05:38:32;1.42;;;1.33;;
43670;SDS011;29267;50.906;7.248;2022-10-16T05:41:02;3.55;;;1.60;;
43670;SDS011;29267;50.906;7.248;2022-10-16T05:43:28;1.42;;;1.25;;
43670;SDS011;29267;50.906;7.248;2022-10-16T05:45:58;3.33;;;1.40;;
43670;SDS011;29267;50.906;7.248;2022-10-16T05:48:25;4.03;;;1.25;;
43670;SDS011;29267;50.906;7.248;2022-10-16T05:51:01;1.85;;;1.25;;
43670;SDS011;29267;50.906;7.248;2022-10-16T05:53:30;2.95;;;1.70;;
43670;SDS011;29267;50.906;7.248;2022-10-16T05:55:57;8.50;;;1.52;;
43670;SDS011;29267;50.906;7.248;2022-10-16T05:58:25;1.40;;;1.25;;
43670;SDS011;29267;50.906;7.248;2022-10-16T06:00:55;2.83;;;1.50;;
43670;SDS011;29267;50.906;7.248;2022-10-16T06:03:22;2.55;;;1.83;;
43670;SDS011;29267;50.906;7.248;2022-10-16T06:05:47;2.05;;;1.80;;
43670;SDS011;29267;50.906;7.248;2022-10-16T06:08:13;2.72;;;1.73;;
43670;SDS011;29267;50.906;7.248;2022-10-16T06:10:39;3.50;;;1.63;;
43670;SDS011;29267;50.906;7.248;2022-10-16T06:13:04;2.33;;;1.73;;
43670;SDS011;29267;50.906;7.248;2022-10-16T06:15:30;5.13;;;1.48;;
43670;SDS011;29267;50.906;7.248;2022-10-16T06:17:55;5.43;;;1.50;;
43670;SDS011;29267;50.906;7.248;2022-10-16T06:20:21;2.25;;;1.33;;
43670;SDS011;29267;50.906;7.248;2022-10-16T06:22:46;4.30;;;1.90;;
43670;SDS011;29267;50.906;7.248;2022-10-16T06:25:12;2.97;;;1.55;;
43670;SDS011;29267;50.906;7.248;2022-10-16T06:27:41;7.30;;;2.10;;
43670;SDS011;29267;50.906;7.248;2022-10-16T06:30:06;4.47;;;1.90;;
43670;SDS011;29267;50.906;7.248;2022-10-16T06:32:32;4.05;;;1.88;;
43670;SDS011;29267;50.906;7.248;2022-10-16T06:34:58;2.42;;;1.67;;
43670;SDS011;29267;50.906;7.248;2022-10-16T06:37:24;1.55;;;1.33;;
43670;SDS011;29267;50.906;7.248;2022-10-16T06:39:50;3.40;;;1.60;;
43670;SDS011;29267;50.906;7.248;2022-10-16T06:42:17;4.10;;;2.60;;
43670;SDS011;29267;50.906;7.248;2022-10-16T06:44:43;2.40;;;1.90;;
43670;SDS011;29267;50.906;7.248;2022-10-16T06:47:08;3.85;;;1.52;;
43670;SDS011;29267;50.906;7.248;2022-10-16T06:49:34;2.00;;;1.80;;
43670;SDS011;29267;50.906;7.248;2022-10-16T06:52:00;5.35;;;1.88;;
43670;SDS011;29267;50.906;7.248;2022-10-16T06:54:26;9.10;;;1.40;;
43670;SDS011;29267;50.906;7.248;2022-10-16T06:56:52;2.72;;;1.80;;
43670;SDS011;29267;50.906;7.248;2022-10-16T06:59:19;8.25;;;1.60;;
43670;SDS011;29267;50.906;7.248;2022-10-16T07:01:47;2.40;;;1.40;;
43670;SDS011;29267;50.906;7.248;2022-10-16T07:04:13;3.63;;;1.25;;
43670;SDS011;29267;50.906;7.248;2022-10-16T07:06:39;3.35;;;1.23;;
43670;SDS011;29267;50.906;7.248;2022-10-16T07:09:07;1.33;;;1.15;;
43670;SDS011;29267;50.906;7.248;2022-10-16T07:11:36;3.58;;;1.48;;
43670;SDS011;29267;50.906;7.248;2022-10-16T07:14:02;2.10;;;1.33;;
43670;SDS011;29267;50.906;7.248;2022-10-16T07:16:29;3.45;;;1.50;;
43670;SDS011;29267;50.906;7.248;2022-10-16T07:19:00;3.60;;;1.25;;
43670;SDS011;29267;50.906;7.248;2022-10-16T07:21:28;1.92;;;1.75;;
43670;SDS011;29267;50.906;7.248;2022-10-16T07:23:57;1.10;;;1.10;;
43670;SDS011;29267;50.906;7.248;2022-10-16T07:26:25;0.90;;;0.90;;
43670;SDS011;29267;50.906;7.248;2022-10-16T07:28:51;3.28;;;1.20;;
43670;SDS011;29267;50.906;7.248;2022-10-16T07:31:17;5.57;;;1.13;;
43670;SDS011;29267;50.906;7.248;2022-10-16T07:33:45;1.60;;;1.27;;
43670;SDS011;29267;50.906;7.248;2022-10-16T07:36:13;1.20;;;0.88;;
43670;SDS011;29267;50.906;7.248;2022-10-16T07:38:39;1.77;;;1.20;;
43670;SDS011;29267;50.906;7.248;2022-10-16T07:41:06;2.08;;;1.63;;
43670;SDS011;29267;50.906;7.248;2022-10-16T07:43:33;3.47;;;1.10;;
43670;SDS011;29267;50.906;7.248;2022-10-16T07:45:59;3.75;;;2.05;;
43670;SDS011;29267;50.906;7.248;2022-10-16T07:48:30;2.58;;;1.27;;
43670;SDS011;29267;50.906;7.248;2022-10-16T07:51:01;3.33;;;0.90;;
43670;SDS011;29267;50.906;7.248;2022-10-16T07:53:28;3.40;;;0.95;;
43670;SDS011;29267;50.906;7.248;2022-10-16T07:55:57;1.92;;;1.10;;
43670;SDS011;29267;50.906;7.248;2022-10-16T07:58:23;1.08;;;0.98;;
43670;SDS011;29267;50.906;7.248;2022-10-16T08:00:49;3.65;;;1.10;;
43670;SDS011;29267;50.906;7.248;2022-10-16T08:03:14;1.20;;;0.95;;
43670;SDS011;29267;50.906;7.248;2022-10-16T08:05:40;6.40;;;1.08;;
43670;SDS011;29267;50.906;7.248;2022-10-16T08:08:06;1.05;;;0.75;;
43670;SDS011;29267;50.906;7.248;2022-10-16T08:10:31;1.30;;;0.90;;
43670;SDS011;29267;50.906;7.248;2022-10-16T08:12:57;1.88;;;1.17;;
43670;SDS011;29267;50.906;7.248;2022-10-16T08:15:23;1.52;;;1.30;;
43670;SDS011;29267;50.906;7.248;2022-10-16T08:17:56;2.10;;;1.20;;
43670;SDS011;29267;50.906;7.248;2022-10-16T08:20:22;1.88;;;1.17;;
43670;SDS011;29267;50.906;7.248;2022-10-16T08:22:48;4.25;;;1.27;;
43670;SDS011;29267;50.906;7.248;2022-10-16T08:25:14;4.57;;;1.85;;
43670;SDS011;29267;50.906;7.248;2022-10-16T08:27:39;0.93;;;0.88;;
43670;SDS011;29267;50.906;7.248;2022-10-16T08:30:05;1.52;;;1.25;;
43670;SDS011;29267;50.906;7.248;2022-10-16T08:32:31;3.25;;;1.10;;
43670;SDS011;29267;50.906;7.248;2022-10-16T08:34:57;3.03;;;1.52;;
43670;SDS011;29267;50.906;7.248;2022-10-16T08:37:22;1.73;;;1.30;;
43670;SDS011;29267;50.906;7.248;2022-10-16T08:39:48;2.85;;;1.13;;
43670;SDS011;29267;50.906;7.248;2022-10-16T08:47:24;2.80;;;1.48;;
43670;SDS011;29267;50.906;7.248;2022-10-16T08:50:02;1.63;;;1.23;;
43670;SDS011;29267;50.906;7.248;2022-10-16T08:52:35;2.30;;;1.23;;
43670;SDS011;29267;50.906;7.248;2022-10-16T08:55:05;3.53;;;1.23;;
43670;SDS011;29267;50.906;7.248;2022-10-16T08:57:31;2.40;;;1.40;;
43670;SDS011;29267;50.906;7.248;2022-10-16T09:00:05;3.10;;;1.23;;
43670;SDS011;29267;50.906;7.248;2022-10-16T09:02:38;1.65;;;1.10;;
43670;SDS011;29267;50.906;7.248;2022-10-16T09:05:52;1.27;;;1.00;;
43670;SDS011;29267;50.906;7.248;2022-10-16T09:10:59;1.17;;;0.90;;
43670;SDS011;29267;50.906;7.248;2022-10-16T09:19:14;0.50;;;0.50;;
43670;SDS011;29267;50.906;7.248;2022-10-16T09:21:53;1.50;;;0.80;;
43670;SDS011;29267;50.906;7.248;2022-10-16T09:24:21;1.63;;;0.50;;
43670;SDS011;29267;50.906;7.248;2022-10-16T09:26:49;2.13;;;1.20;;
43670;SDS011;29267;50.906;7.248;2022-10-16T09:29:18;3.00;;;0.75;;
43670;SDS011;29267;50.906;7.248;2022-10-16T09:31:46;0.98;;;0.70;;
43670;SDS011;29267;50.906;7.248;2022-10-16T09:34:30;0.47;;;0.47;;
43670;SDS011;29267;50.906;7.248;2022-10-16T09:36:59;2.25;;;0.50;;
43670;SDS011;29267;50.906;7.248;2022-10-16T09:39:28;2.25;;;0.60;;
43670;SDS011;29267;50.906;7.248;2022-10-16T09:41:53;3.20;;;0.65;;
43670;SDS011;29267;50.906;7.248;2022-10-16T09:44:30;0.60;;;0.38;;
43670;SDS011;29267;50.906;7.248;2022-10-16T09:47:11;1.85;;;0.70;;
43670;SDS011;29267;50.906;7.248;2022-10-16T09:50:01;1.48;;;0.70;;
43670;SDS011;29267;50.906;7.248;2022-10-16T09:52:31;0.30;;;0.30;;
43670;SDS011;29267;50.906;7.248;2022-10-16T09:54:58;0.45;;;0.40;;
43670;SDS011;29267;50.906;7.248;2022-10-16T09:57:25;1.58;;;0.55;;
43670;SDS011;29267;50.906;7.248;2022-10-16T09:59:52;1.30;;;0.70;;
43670;SDS011;29267;50.906;7.248;2022-10-16T10:02:23;1.38;;;0.47;;
43670;SDS011;29267;50.906;7.248;2022-10-16T10:04:56;0.57;;;0.50;;
43670;SDS011;29267;50.906;7.248;2022-10-16T10:07:26;0.60;;;0.60;;
43670;SDS011;29267;50.906;7.248;2022-10-16T10:09:55;1.95;;;0.47;;
43670;SDS011;29267;50.906;7.248;2022-10-16T10:12:23;1.98;;;0.85;;
43670;SDS011;29267;50.906;7.248;2022-10-16T10:14:51;0.80;;;0.70;;
43670;SDS011;29267;50.906;7.248;2022-10-16T10:17:22;2.83;;;0.47;;
43670;SDS011;29267;50.906;7.248;2022-10-16T10:19:50;0.85;;;0.63;;
43670;SDS011;29267;50.906;7.248;2022-10-16T10:22:22;1.00;;;0.68;;
43670;SDS011;29267;50.906;7.248;2022-10-16T10:25:22;0.50;;;0.40;;
43670;SDS011;29267;50.906;7.248;2022-10-16T10:33:37;1.52;;;0.57;;
43670;SDS011;29267;50.906;7.248;2022-10-16T10:39:11;1.20;;;0.60;;
43670;SDS011;29267;50.906;7.248;2022-10-16T10:44:59;1.40;;;0.60;;
43670;SDS011;29267;50.906;7.248;2022-10-16T10:47:47;1.48;;;1.13;;
43670;SDS011;29267;50.906;7.248;2022-10-16T10:50:33;2.33;;;0.60;;
43670;SDS011;29267;50.906;7.248;2022-10-16T10:55:54;0.52;;;0.50;;
43670;SDS011;29267;50.906;7.248;2022-10-16T11:01:46;2.42;;;0.40;;
43670;SDS011;29267;50.906;7.248;2022-10-16T11:07:04;0.98;;;0.40;;
43670;SDS011;29267;50.906;7.248;2022-10-16T11:12:18;3.90;;;0.45;;
43670;SDS011;29267;50.906;7.248;2022-10-16T11:15:13;3.40;;;0.30;;
43670;SDS011;29267;50.906;7.248;2022-10-16T11:17:54;4.40;;;0.50;;
43670;SDS011;29267;50.906;7.248;2022-10-16T11:20:49;1.23;;;0.30;;
43670;SDS011;29267;50.906;7.248;2022-10-16T11:23:21;0.70;;;0.40;;
43670;SDS011;29267;50.906;7.248;2022-10-16T11:26:04;1.55;;;0.30;;
43670;SDS011;29267;50.906;7.248;2022-10-16T11:28:37;0.90;;;0.40;;
43670;SDS011;29267;50.906;7.248;2022-10-16T11:31:16;5.20;;;0.60;;
43670;SDS011;29267;50.906;7.248;2022-10-16T11:33:51;1.65;;;0.43;;
43670;SDS011;29267;50.906;7.248;2022-10-16T11:36:33;2.45;;;0.40;;
43670;SDS011;29267;50.906;7.248;2022-10-16T11:39:21;0.90;;;0.40;;
43670;SDS011;29267;50.906;7.248;2022-10-16T11:41:49;1.30;;;0.40;;
43670;SDS011;29267;50.906;7.248;2022-10-16T11:46:48;0.52;;;0.28;;
43670;SDS011;29267;50.906;7.248;2022-10-16T11:49:36;1.23;;;0.50;;
43670;SDS011;29267;50.906;7.248;2022-10-16T11:54:49;1.50;;;0.45;;
43670;SDS011;29267;50.906;7.248;2022-10-16T11:58:05;0.30;;;0.30;;
43670;SDS011;29267;50.906;7.248;2022-10-16T12:08:17;0.80;;;0.43;;
43670;SDS011;29267;50.906;7.248;2022-10-16T12:10:44;0.57;;;0.40;;
43670;SDS011;29267;50.906;7.248;2022-10-16T12:13:30;2.17;;;0.60;;
43670;SDS011;29267;50.906;7.248;2022-10-16T12:18:36;1.13;;;0.50;;
43670;SDS011;29267;50.906;7.248;2022-10-16T12:21:02;2.17;;;0.68;;
43670;SDS011;29267;50.906;7.248;2022-10-16T12:23:36;4.10;;;0.50;;
43670;SDS011;29267;50.906;7.248;2022-10-16T12:26:03;0.40;;;0.40;;
43670;SDS011;29267;50.906;7.248;2022-10-16T12:28:30;0.93;;;0.50;;
43670;SDS011;29267;50.906;7.248;2022-10-16T12:31:05;0.93;;;0.50;;
43670;SDS011;29267;50.906;7.248;2022-10-16T12:36:00;0.40;;;0.30;;
43670;SDS011;29267;50.906;7.248;2022-10-16T12:41:07;0.50;;;0.40;;
43670;SDS011;29267;50.906;7.248;2022-10-16T12:48:40;1.35;;;0.47;;
43670;SDS011;29267;50.906;7.248;2022-10-16T12:54:01;3.80;;;0.38;;
43670;SDS011;29267;50.906;7.248;2022-10-16T13:07:32;1.23;;;0.30;;
43670;SDS011;29267;50.906;7.248;2022-10-16T13:10:21;2.47;;;0.40;;
43670;SDS011;29267;50.906;7.248;2022-10-16T13:15:39;0.35;;;0.30;;
43670;SDS011;29267;50.906;7.248;2022-10-16T13:18:19;0.50;;;0.30;;
43670;SDS011;29267;50.906;7.248;2022-10-16T13:23:54;2.47;;;0.40;;
43670;SDS011;29267;50.906;7.248;2022-10-16T13:29:22;0.73;;;0.60;;
43670;SDS011;29267;50.906;7.248;2022-10-16T13:31:47;4.50;;;0.63;;
43670;SDS011;29267;50.906;7.248;2022-10-16T13:34:14;0.82;;;0.40;;
43670;SDS011;29267;50.906;7.248;2022-10-16T13:36:45;2.78;;;0.40;;
43670;SDS011;29267;50.906;7.248;2022-10-16T13:39:22;1.83;;;0.40;;
43670;SDS011;29267;50.906;7.248;2022-10-16T13:44:43;1.92;;;0.30;;
43670;SDS011;29267;50.906;7.248;2022-10-16T13:47:16;2.20;;;0.40;;
43670;SDS011;29267;50.906;7.248;2022-10-16T13:49:43;1.38;;;0.30;;
43670;SDS011;29267;50.906;7.248;2022-10-16T13:52:19;0.57;;;0.38;;
43670;SDS011;29267;50.906;7.248;2022-10-16T13:54:46;0.90;;;0.75;;
43670;SDS011;29267;50.906;7.248;2022-10-16T13:57:13;0.75;;;0.30;;
43670;SDS011;29267;50.906;7.248;2022-10-16T13:59:40;1.60;;;0.55;;
43670;SDS011;29267;50.906;7.248;2022-10-16T14:04:52;0.93;;;0.52;;
43670;SDS011;29267;50.906;7.248;2022-10-16T14:07:29;0.40;;;0.40;;
43670;SDS011;29267;50.906;7.248;2022-10-16T14:09:58;1.38;;;0.60;;
43670;SDS011;29267;50.906;7.248;2022-10-16T14:12:28;0.65;;;0.30;;
43670;SDS011;29267;50.906;7.248;2022-10-16T14:14:54;0.55;;;0.50;;
43670;SDS011;29267;50.906;7.248;2022-10-16T14:17:23;1.20;;;0.50;;
43670;SDS011;29267;50.906;7.248;2022-10-16T14:19:53;3.67;;;0.40;;
43670;SDS011;29267;50.906;7.248;2022-10-16T14:25:00;2.72;;;0.50;;
43670;SDS011;29267;50.906;7.248;2022-10-16T14:27:29;0.88;;;0.55;;
43670;SDS011;29267;50.906;7.248;2022-10-16T14:32:41;2.30;;;0.65;;
43670;SDS011;29267;50.906;7.248;2022-10-16T14:35:27;2.45;;;0.65;;
43670;SDS011;29267;50.906;7.248;2022-10-16T14:37:58;0.93;;;0.50;;
43670;SDS011;29267;50.906;7.248;2022-10-16T14:40:35;1.70;;;0.50;;
43670;SDS011;29267;50.906;7.248;2022-10-16T14:43:03;1.80;;;0.77;;
43670;SDS011;29267;50.906;7.248;2022-10-16T14:45:30;1.13;;;0.57;;
43670;SDS011;29267;50.906;7.248;2022-10-16T14:47:59;1.27;;;0.65;;
43670;SDS011;29267;50.906;7.248;2022-10-16T14:50:27;3.70;;;0.80;;
43670;SDS011;29267;50.906;7.248;2022-10-16T14:52:53;1.35;;;0.80;;
43670;SDS011;29267;50.906;7.248;2022-10-16T14:55:19;1.98;;;1.17;;
43670;SDS011;29267;50.906;7.248;2022-10-16T14:57:45;0.85;;;0.55;;
43670;SDS011;29267;50.906;7.248;2022-10-16T15:00:17;2.20;;;0.68;;
43670;SDS011;29267;50.906;7.248;2022-10-16T15:02:45;1.27;;;0.90;;
43670;SDS011;29267;50.906;7.248;2022-10-16T15:07:45;2.38;;;1.02;;
43670;SDS011;29267;50.906;7.248;2022-10-16T15:10:12;0.93;;;0.60;;
43670;SDS011;29267;50.906;7.248;2022-10-16T15:12:38;1.52;;;0.80;;
43670;SDS011;29267;50.906;7.248;2022-10-16T15:17:48;1.95;;;0.60;;
43670;SDS011;29267;50.906;7.248;2022-10-16T15:20:29;0.75;;;0.63;;
43670;SDS011;29267;50.906;7.248;2022-10-16T15:22:58;3.78;;;0.75;;
43670;SDS011;29267;50.906;7.248;2022-10-16T15:27:57;4.82;;;0.90;;
43670;SDS011;29267;50.906;7.248;2022-10-16T15:30:23;1.05;;;0.50;;
43670;SDS011;29267;50.906;7.248;2022-10-16T15:32:49;1.65;;;0.55;;
43670;SDS011;29267;50.906;7.248;2022-10-16T15:35:15;1.08;;;0.68;;
43670;SDS011;29267;50.906;7.248;2022-10-16T15:37:40;1.08;;;0.70;;
43670;SDS011;29267;50.906;7.248;2022-10-16T15:40:06;0.73;;;0.73;;
43670;SDS011;29267;50.906;7.248;2022-10-16T15:42:33;1.40;;;0.70;;
43670;SDS011;29267;50.906;7.248;2022-10-16T15:44:58;1.20;;;0.70;;
43670;SDS011;29267;50.906;7.248;2022-10-16T15:47:24;1.08;;;0.77;;
43670;SDS011;29267;50.906;7.248;2022-10-16T15:49:50;1.02;;;0.70;;
43670;SDS011;29267;50.906;7.248;2022-10-16T15:52:15;4.13;;;0.88;;
43670;SDS011;29267;50.906;7.248;2022-10-16T15:54:41;1.17;;;0.90;;
43670;SDS011;29267;50.906;7.248;2022-10-16T15:57:07;3.42;;;0.93;;
43670;SDS011;29267;50.906;7.248;2022-10-16T15:59:33;0.85;;;0.70;;
43670;SDS011;29267;50.906;7.248;2022-10-16T16:01:58;1.77;;;0.75;;
43670;SDS011;29267;50.906;7.248;2022-10-16T16:04:24;0.68;;;0.68;;
43670;SDS011;29267;50.906;7.248;2022-10-16T16:06:49;1.13;;;0.70;;
43670;SDS011;29267;50.906;7.248;2022-10-16T16:09:15;4.25;;;1.40;;
43670;SDS011;29267;50.906;7.248;2022-10-16T16:11:41;1.13;;;0.65;;
43670;SDS011;29267;50.906;7.248;2022-10-16T16:14:07;0.85;;;0.80;;
43670;SDS011;29267;50.906;7.248;2022-10-16T16:16:36;1.50;;;0.80;;
43670;SDS011;29267;50.906;7.248;2022-10-16T16:19:06;1.40;;;0.80;;
43670;SDS011;29267;50.906;7.248;2022-10-16T16:21:32;1.20;;;0.65;;
43670;SDS011;29267;50.906;7.248;2022-10-16T16:23:58;1.65;;;0.70;;
43670;SDS011;29267;50.906;7.248;2022-10-16T16:26:28;1.02;;;0.70;;
43670;SDS011;29267;50.906;7.248;2022-10-16T16:28:59;1.42;;;0.90;;
43670;SDS011;29267;50.906;7.248;2022-10-16T16:31:28;2.60;;;0.82;;
43670;SDS011;29267;50.906;7.248;2022-10-16T16:33:55;3.30;;;0.77;;
43670;SDS011;29267;50.906;7.248;2022-10-16T16:36:22;2.13;;;0.95;;
43670;SDS011;29267;50.906;7.248;2022-10-16T16:38:48;2.00;;;0.90;;
43670;SDS011;29267;50.906;7.248;2022-10-16T16:41:14;2.35;;;0.82;;
43670;SDS011;29267;50.906;7.248;2022-10-16T16:43:48;0.88;;;0.77;;
43670;SDS011;29267;50.906;7.248;2022-10-16T16:46:14;2.55;;;0.80;;
43670;SDS011;29267;50.906;7.248;2022-10-16T16:48:40;3.65;;;1.00;;
43670;SDS011;29267;50.906;7.248;2022-10-16T16:51:07;3.03;;;1.05;;
43670;SDS011;29267;50.906;7.248;2022-10-16T16:53:36;1.17;;;0.77;;
43670;SDS011;29267;50.906;7.248;2022-10-16T16:56:02;2.05;;;0.93;;
43670;SDS011;29267;50.906;7.248;2022-10-16T16:58:29;0.60;;;0.60;;
43670;SDS011;29267;50.906;7.248;2022-10-16T17:00:55;1.13;;;0.93;;
43670;SDS011;29267;50.906;7.248;2022-10-16T17:03:20;1.10;;;0.80;;
43670;SDS011;29267;50.906;7.248;2022-10-16T17:08:41;1.77;;;0.90;;